createdAt,value
2019-04-30T00:00:47.003Z,19.10
2019-04-30T00:03:39.203Z,18.63
2019-04-30T00:06:08.114Z,13.37
2019-04-30T00:08:39.093Z,16.00
2019-04-30T00:11:10.854Z,14.07
2019-04-30T00:13:38.226Z,17.47
2019-04-30T00:16:07.069Z,14.77
2019-04-30T00:18:39.558Z,18.53
2019-04-30T00:21:09.938Z,16.37
2019-04-30T00:23:37.082Z,15.80
2019-04-30T00:26:10.265Z,15.53
2019-04-30T00:28:39.412Z,16.83
2019-04-30T00:31:07.594Z,14.80
2019-04-30T00:33:36.445Z,16.07
2019-04-30T00:36:05.862Z,17.17
2019-04-30T00:38:37.869Z,17.33
2019-04-30T00:41:06.946Z,17.77
2019-04-30T00:43:37.794Z,24.10
2019-04-30T00:46:06.895Z,18.60
2019-04-30T00:48:35.767Z,15.50
2019-04-30T00:51:07.546Z,15.73
2019-04-30T00:53:35.937Z,14.13
2019-04-30T00:56:05.698Z,21.30
2019-04-30T00:58:35.681Z,17.50
2019-04-30T01:01:18.196Z,13.03
2019-04-30T01:03:51.999Z,16.57
2019-04-30T01:06:26.876Z,16.43
2019-04-30T01:08:51.656Z,17.63
2019-04-30T01:11:20.447Z,19.23
2019-04-30T01:13:50.977Z,14.30
2019-04-30T01:16:23.581Z,16.80
2019-04-30T01:18:50.463Z,16.57
2019-04-30T01:21:19.254Z,16.57
2019-04-30T01:23:54.524Z,19.67
2019-04-30T01:26:22.858Z,21.50
2019-04-30T01:28:53.680Z,20.93
2019-04-30T01:31:21.476Z,16.60
2019-04-30T01:33:50.546Z,12.77
2019-04-30T01:36:19.772Z,17.47
2019-04-30T01:38:52.437Z,14.97
2019-04-30T01:41:22.017Z,18.23
2019-04-30T01:43:50.222Z,17.37
2019-04-30T01:46:21.011Z,16.83
2019-04-30T01:48:51.950Z,21.87
2019-04-30T01:51:21.769Z,16.30
2019-04-30T01:53:50.902Z,18.63
2019-04-30T01:56:29.318Z,16.50
2019-04-30T01:59:09.098Z,15.33
2019-04-30T02:01:40.571Z,16.37
2019-04-30T02:04:10.018Z,19.10
2019-04-30T02:06:39.219Z,20.97
2019-04-30T02:09:09.125Z,15.07
2019-04-30T02:11:38.859Z,17.97
2019-04-30T02:14:09.020Z,15.73
2019-04-30T02:16:39.535Z,18.13
2019-04-30T02:19:09.138Z,16.57
2019-04-30T02:21:38.545Z,20.77
2019-04-30T02:24:08.964Z,23.80
2019-04-30T02:26:38.523Z,16.27
2019-04-30T02:29:09.174Z,15.47
2019-04-30T02:31:40.572Z,23.50
2019-04-30T02:34:30.324Z,15.13
2019-04-30T02:37:21.093Z,18.47
2019-04-30T02:39:50.378Z,19.90
2019-04-30T02:42:20.545Z,20.57
2019-04-30T02:44:51.965Z,14.43
2019-04-30T02:47:22.708Z,16.00
2019-04-30T02:50:09.858Z,14.83
2019-04-30T02:52:29.339Z,13.67
2019-04-30T02:54:59.408Z,15.67
2019-04-30T02:57:29.972Z,18.87
2019-04-30T03:00:20.205Z,16.30
2019-04-30T03:02:50.264Z,19.17
2019-04-30T03:05:20.208Z,14.80
2019-04-30T03:07:52.969Z,14.80
2019-04-30T03:10:20.127Z,15.90
2019-04-30T03:12:49.886Z,16.47
2019-04-30T03:15:22.693Z,15.90
2019-04-30T03:18:00.583Z,19.20
2019-04-30T03:20:40.031Z,14.83
2019-04-30T03:23:09.831Z,17.17
2019-04-30T03:25:40.511Z,13.40
2019-04-30T03:28:09.838Z,16.97
2019-04-30T03:30:41.958Z,15.57
2019-04-30T03:33:12.652Z,18.47
2019-04-30T03:35:46.782Z,21.77
2019-04-30T03:38:10.487Z,14.73
2019-04-30T03:40:40.513Z,19.23
2019-04-30T03:43:10.343Z,17.50
2019-04-30T03:45:40.388Z,17.70
2019-04-30T03:48:10.244Z,19.17
2019-04-30T03:50:52.492Z,14.93
2019-04-30T03:53:10.469Z,18.37
2019-04-30T03:55:40.155Z,16.40
2019-04-30T03:58:09.507Z,15.17
2019-04-30T04:00:50.232Z,14.37
2019-04-30T04:03:20.152Z,17.77
2019-04-30T04:06:09.407Z,16.77
2019-04-30T04:08:53.427Z,15.43
2019-04-30T04:11:26.046Z,13.80
2019-04-30T04:13:54.831Z,15.13
2019-04-30T04:16:23.611Z,19.90
2019-04-30T04:18:52.450Z,18.23
2019-04-30T04:21:21.226Z,17.80
2019-04-30T04:23:50.282Z,17.97
2019-04-30T04:26:20.214Z,15.47
2019-04-30T04:28:49.914Z,14.83
2019-04-30T04:31:19.468Z,14.80
2019-04-30T04:33:52.322Z,14.00
2019-04-30T04:36:20.034Z,16.87
2019-04-30T04:38:50.763Z,16.40
2019-04-30T04:41:19.884Z,17.37
2019-04-30T04:43:50.387Z,15.83
2019-04-30T04:46:20.622Z,14.67
2019-04-30T04:48:49.619Z,15.03
2019-04-30T04:51:31.276Z,18.20
2019-04-30T04:53:50.009Z,17.63
2019-04-30T04:56:19.307Z,17.67
2019-04-30T04:58:50.158Z,15.37
2019-04-30T05:01:20.380Z,19.57
2019-04-30T05:03:49.783Z,17.97
2019-04-30T05:06:21.727Z,23.83
2019-04-30T05:08:49.358Z,23.73
2019-04-30T05:11:19.251Z,21.47
2019-04-30T05:13:49.033Z,18.83
2019-04-30T05:16:19.049Z,24.83
2019-04-30T05:18:48.776Z,23.37
2019-04-30T05:21:18.779Z,23.37
2019-04-30T05:23:49.266Z,22.93
2019-04-30T05:26:19.122Z,28.37
2019-04-30T05:28:52.516Z,26.43
2019-04-30T05:31:20.987Z,29.27
2019-04-30T05:33:49.102Z,27.00
2019-04-30T05:36:19.179Z,26.60
2019-04-30T05:38:48.824Z,24.10
2019-04-30T05:41:19.258Z,27.80
2019-04-30T05:43:48.837Z,28.43
2019-04-30T05:46:19.667Z,32.37
2019-04-30T05:48:49.728Z,33.77
2019-04-30T05:51:21.152Z,30.43
2019-04-30T05:53:49.331Z,28.33
2019-04-30T05:56:19.332Z,28.17
2019-04-30T05:58:49.440Z,30.73
2019-04-30T06:01:19.652Z,33.30
2019-04-30T06:03:48.675Z,27.67
2019-04-30T06:06:19.288Z,27.67
2019-04-30T06:09:14.473Z,31.33
2019-04-30T06:12:11.382Z,32.80
2019-04-30T06:14:51.794Z,30.57
2019-04-30T06:17:21.046Z,31.17
2019-04-30T06:19:51.568Z,29.23
2019-04-30T06:22:20.858Z,29.27
2019-04-30T06:24:49.711Z,30.67
2019-04-30T06:27:19.598Z,34.20
2019-04-30T06:29:49.108Z,31.03
2019-04-30T06:32:18.656Z,31.83
2019-04-30T06:34:49.831Z,30.03
2019-04-30T06:37:19.579Z,29.30
2019-04-30T06:39:49.979Z,26.13
2019-04-30T06:42:19.591Z,28.57
2019-04-30T06:44:49.586Z,30.17
2019-04-30T06:47:22.766Z,28.63
2019-04-30T06:49:49.470Z,30.03
2019-04-30T06:52:23.283Z,35.90
2019-04-30T06:54:49.863Z,32.17
2019-04-30T06:57:19.896Z,33.07
2019-04-30T06:59:51.289Z,32.57
2019-04-30T07:02:19.814Z,37.40
2019-04-30T07:04:49.323Z,42.70
2019-04-30T07:07:22.879Z,42.87
2019-04-30T07:10:00.977Z,38.07
2019-04-30T07:12:42.115Z,35.90
2019-04-30T07:15:13.555Z,32.50
2019-04-30T07:17:41.939Z,37.10
2019-04-30T07:20:10.974Z,44.77
2019-04-30T07:22:48.903Z,43.57
2019-04-30T07:25:10.406Z,45.37
2019-04-30T07:27:40.269Z,58.30
2019-04-30T07:30:10.116Z,54.93
2019-04-30T07:32:39.114Z,57.13
2019-04-30T07:35:09.516Z,54.57
2019-04-30T07:37:39.411Z,52.97
2019-04-30T07:40:09.282Z,44.57
2019-04-30T07:42:44.644Z,55.10
2019-04-30T07:45:09.785Z,56.20
2019-04-30T07:47:39.748Z,55.93
2019-04-30T07:50:10.722Z,58.00
2019-04-30T07:52:58.062Z,55.67
2019-04-30T07:55:10.758Z,56.63
2019-04-30T07:57:40.427Z,52.53
2019-04-30T08:00:10.249Z,55.53
2019-04-30T08:02:44.390Z,50.93
2019-04-30T08:05:23.011Z,49.57
2019-04-30T08:07:51.856Z,51.37
2019-04-30T08:10:20.684Z,52.93
2019-04-30T08:12:51.068Z,45.23
2019-04-30T08:15:20.179Z,45.67
2019-04-30T08:18:02.203Z,49.80
2019-04-30T08:20:19.880Z,49.50
2019-04-30T08:22:49.537Z,53.90
2019-04-30T08:25:19.780Z,51.43
2019-04-30T08:27:49.431Z,51.47
2019-04-30T08:30:26.224Z,47.47
2019-04-30T08:32:49.978Z,41.97
2019-04-30T08:35:19.832Z,44.00
2019-04-30T08:37:49.668Z,32.00
2019-04-30T08:40:19.142Z,32.43
2019-04-30T08:42:49.572Z,33.63
2019-04-30T08:45:19.674Z,39.27
2019-04-30T08:47:49.395Z,34.63
2019-04-30T08:50:20.105Z,36.43
2019-04-30T08:52:50.208Z,34.43
2019-04-30T08:55:22.354Z,35.57
2019-04-30T08:57:50.171Z,32.27
2019-04-30T09:00:20.314Z,35.67
2019-04-30T09:02:49.345Z,38.43
2019-04-30T09:05:28.668Z,38.20
2019-04-30T09:07:59.722Z,37.73
2019-04-30T09:10:29.398Z,47.67
2019-04-30T09:12:59.756Z,43.07
2019-04-30T09:15:29.448Z,44.17
2019-04-30T09:18:03.785Z,34.57
2019-04-30T09:20:29.268Z,39.97
2019-04-30T09:22:59.518Z,47.90
2019-04-30T09:25:29.195Z,40.63
2019-04-30T09:27:58.813Z,42.73
2019-04-30T09:30:29.812Z,44.73
2019-04-30T09:32:59.523Z,42.77
2019-04-30T09:35:31.778Z,43.47
2019-04-30T09:38:01.876Z,43.83
2019-04-30T09:40:32.204Z,37.53
2019-04-30T09:43:00.743Z,40.67
2019-04-30T09:45:29.799Z,39.73
2019-04-30T09:47:59.335Z,40.43
2019-04-30T09:50:29.234Z,41.00
2019-04-30T09:53:00.322Z,46.13
2019-04-30T09:55:29.483Z,38.73
2019-04-30T09:57:58.920Z,42.30
2019-04-30T10:00:29.502Z,42.90
2019-04-30T10:02:59.904Z,38.70
2019-04-30T10:05:29.367Z,42.90
2019-04-30T10:07:59.410Z,45.03
2019-04-30T10:10:34.257Z,41.23
2019-04-30T10:13:03.300Z,42.63
2019-04-30T10:15:39.874Z,49.83
2019-04-30T10:18:09.254Z,44.70
2019-04-30T10:20:42.910Z,42.57
2019-04-30T10:23:11.697Z,46.87
2019-04-30T10:25:41.445Z,42.10
2019-04-30T10:28:10.332Z,40.53
2019-04-30T10:30:39.448Z,39.57
2019-04-30T10:33:10.040Z,44.57
2019-04-30T10:35:39.492Z,39.63
2019-04-30T10:38:09.854Z,40.37
2019-04-30T10:40:39.255Z,38.63
2019-04-30T10:43:08.960Z,41.87
2019-04-30T10:45:39.065Z,41.53
2019-04-30T10:48:08.233Z,46.50
2019-04-30T10:50:40.783Z,43.40
2019-04-30T10:53:09.174Z,45.50
2019-04-30T10:55:38.755Z,42.90
2019-04-30T10:58:08.210Z,51.40
2019-04-30T11:00:39.158Z,43.40
2019-04-30T11:03:19.164Z,40.43
2019-04-30T11:05:41.341Z,38.30
2019-04-30T11:08:10.700Z,41.67
2019-04-30T11:10:39.989Z,38.27
2019-04-30T11:13:09.339Z,45.67
2019-04-30T11:15:39.464Z,38.20
2019-04-30T11:18:08.786Z,36.90
2019-04-30T11:20:39.470Z,37.93
2019-04-30T11:23:14.613Z,35.33
2019-04-30T11:25:41.254Z,34.30
2019-04-30T11:28:10.533Z,35.27
2019-04-30T11:30:40.143Z,35.70
2019-04-30T11:33:09.259Z,36.40
2019-04-30T11:35:39.459Z,37.83
2019-04-30T11:38:08.464Z,35.80
2019-04-30T11:40:39.904Z,35.23
2019-04-30T11:43:08.662Z,31.23
2019-04-30T11:46:19.938Z,38.30
2019-04-30T11:48:49.099Z,39.10
2019-04-30T11:51:19.388Z,33.43
2019-04-30T11:53:49.018Z,36.07
2019-04-30T11:56:18.003Z,35.87
2019-04-30T11:58:48.796Z,37.90
2019-04-30T12:01:19.554Z,37.00
2019-04-30T12:03:49.692Z,39.13
2019-04-30T12:06:19.074Z,36.40
2019-04-30T12:09:10.966Z,38.30
2019-04-30T12:11:40.308Z,32.93
2019-04-30T12:14:09.518Z,33.83
2019-04-30T12:16:39.606Z,39.60
2019-04-30T12:19:09.043Z,34.47
2019-04-30T12:21:38.191Z,34.73
2019-04-30T12:24:07.931Z,35.00
2019-04-30T12:26:38.811Z,37.47
2019-04-30T12:29:08.970Z,35.27
2019-04-30T12:31:38.167Z,41.93
2019-04-30T12:34:07.062Z,33.87
2019-04-30T12:36:35.947Z,34.80
2019-04-30T12:39:06.426Z,38.03
2019-04-30T12:41:35.399Z,37.57
2019-04-30T12:44:04.462Z,32.73
2019-04-30T12:46:33.684Z,37.27
2019-04-30T12:49:10.228Z,38.73
2019-04-30T12:51:58.744Z,39.00
2019-04-30T12:54:39.003Z,42.10
2019-04-30T12:57:12.790Z,35.60
2019-04-30T12:59:42.468Z,36.80
2019-04-30T13:02:11.672Z,35.30
2019-04-30T13:04:40.554Z,34.17
2019-04-30T13:07:10.679Z,35.77
2019-04-30T13:09:40.790Z,39.50
2019-04-30T13:12:11.055Z,41.90
2019-04-30T13:14:51.527Z,37.23
2019-04-30T13:17:11.253Z,42.77
2019-04-30T13:19:40.349Z,44.57
2019-04-30T13:22:11.365Z,45.00
2019-04-30T13:24:40.462Z,45.50
2019-04-30T13:27:09.654Z,50.70
2019-04-30T13:29:46.978Z,51.60
2019-04-30T13:32:27.310Z,48.10
2019-04-30T13:35:01.023Z,42.57
2019-04-30T13:37:39.006Z,45.17
2019-04-30T13:40:16.220Z,50.93
2019-04-30T13:42:48.791Z,45.83
2019-04-30T13:45:18.688Z,47.27
2019-04-30T13:47:48.894Z,47.87
2019-04-30T13:50:19.721Z,45.57
2019-04-30T13:52:48.906Z,48.70
2019-04-30T13:55:19.221Z,51.90
2019-04-30T13:57:48.516Z,45.23
2019-04-30T14:00:22.258Z,50.80
2019-04-30T14:03:00.601Z,50.20
2019-04-30T14:05:28.026Z,52.43
2019-04-30T14:08:13.452Z,46.43
2019-04-30T14:10:44.360Z,51.83
2019-04-30T14:13:13.686Z,48.20
2019-04-30T14:15:43.090Z,45.43
2019-04-30T14:18:12.223Z,44.43
2019-04-30T14:20:41.098Z,45.33
2019-04-30T14:23:10.713Z,42.50
2019-04-30T14:25:39.722Z,46.60
2019-04-30T14:28:09.422Z,44.07
2019-04-30T14:30:39.323Z,49.87
2019-04-30T14:33:09.555Z,42.17
2019-04-30T14:35:38.826Z,42.63
2019-04-30T14:38:09.052Z,43.00
2019-04-30T14:40:40.474Z,42.70
2019-04-30T14:43:19.737Z,46.90
2019-04-30T14:46:06.071Z,49.10
2019-04-30T14:48:41.387Z,43.83
2019-04-30T14:51:11.075Z,45.17
2019-04-30T14:53:48.873Z,42.57
2019-04-30T14:56:32.279Z,45.23
2019-04-30T14:59:18.791Z,38.63
2019-04-30T15:01:59.153Z,39.00
2019-04-30T15:04:29.090Z,41.60
2019-04-30T15:06:58.813Z,40.77
2019-04-30T15:09:28.003Z,42.50
2019-04-30T15:11:58.610Z,40.87
2019-04-30T15:14:28.134Z,42.87
2019-04-30T15:16:57.713Z,41.40
2019-04-30T15:19:26.937Z,41.90
2019-04-30T15:21:55.791Z,39.63
2019-04-30T15:24:31.370Z,41.37
2019-04-30T15:27:00.300Z,41.13
2019-04-30T15:29:29.196Z,40.07
2019-04-30T15:31:59.303Z,45.90
2019-04-30T15:34:29.319Z,43.17
2019-04-30T15:36:59.239Z,48.50
2019-04-30T15:39:39.491Z,42.30
2019-04-30T15:42:08.939Z,41.17
2019-04-30T15:44:45.255Z,42.67
2019-04-30T15:47:09.328Z,40.37
2019-04-30T15:49:38.430Z,47.10
2019-04-30T15:52:10.621Z,42.13
2019-04-30T15:54:39.281Z,45.47
2019-04-30T15:57:09.001Z,39.07
2019-04-30T15:59:40.377Z,40.33
2019-04-30T16:02:28.726Z,37.50
2019-04-30T16:05:16.603Z,41.00
2019-04-30T16:07:58.758Z,38.23
2019-04-30T16:10:52.879Z,38.77
2019-04-30T16:13:24.208Z,38.57
2019-04-30T16:15:53.324Z,43.27
2019-04-30T16:18:22.723Z,38.47
2019-04-30T16:20:51.759Z,39.17
2019-04-30T16:23:20.534Z,45.33
2019-04-30T16:25:49.324Z,41.70
2019-04-30T16:28:19.583Z,40.20
2019-04-30T16:30:48.580Z,39.67
2019-04-30T16:33:19.365Z,42.67
2019-04-30T16:35:50.497Z,37.50
2019-04-30T16:38:20.897Z,37.10
2019-04-30T16:40:49.706Z,37.57
2019-04-30T16:43:20.336Z,36.73
2019-04-30T16:45:49.594Z,38.63
2019-04-30T16:48:19.328Z,36.97
2019-04-30T16:50:51.119Z,35.83
2019-04-30T16:53:19.391Z,35.57
2019-04-30T16:55:50.527Z,35.50
2019-04-30T16:58:19.728Z,37.20
2019-04-30T17:00:49.498Z,38.30
2019-04-30T17:03:34.546Z,37.10
2019-04-30T17:06:12.802Z,36.93
2019-04-30T17:08:49.448Z,35.17
2019-04-30T17:11:38.662Z,36.27
2019-04-30T17:14:11.066Z,33.33
2019-04-30T17:16:40.182Z,35.97
2019-04-30T17:19:09.307Z,30.50
2019-04-30T17:21:38.114Z,35.97
2019-04-30T17:24:08.804Z,35.13
2019-04-30T17:26:39.195Z,34.70
2019-04-30T17:29:09.628Z,31.17
2019-04-30T17:31:38.795Z,34.00
2019-04-30T17:34:07.958Z,32.57
2019-04-30T17:36:36.758Z,28.73
2019-04-30T17:39:10.263Z,32.23
2019-04-30T17:41:39.376Z,34.63
2019-04-30T17:44:08.855Z,29.40
2019-04-30T17:46:38.563Z,30.37
2019-04-30T17:49:07.421Z,31.43
2019-04-30T17:51:36.210Z,33.93
2019-04-30T17:54:14.775Z,33.20
2019-04-30T17:56:44.754Z,28.50
2019-04-30T17:59:13.941Z,34.50
2019-04-30T18:01:47.063Z,29.97
2019-04-30T18:04:16.194Z,32.70
2019-04-30T18:06:44.982Z,30.53
2019-04-30T18:09:14.351Z,29.83
2019-04-30T18:11:43.453Z,34.90
2019-04-30T18:14:12.754Z,35.00
2019-04-30T18:16:41.875Z,33.37
2019-04-30T18:19:24.454Z,35.20
2019-04-30T18:21:59.676Z,29.77
2019-04-30T18:24:37.022Z,29.23
2019-04-30T18:27:45.356Z,30.23
2019-04-30T18:30:07.268Z,33.60
2019-04-30T18:32:36.144Z,33.30
2019-04-30T18:35:05.447Z,33.27
2019-04-30T18:37:34.516Z,32.57
2019-04-30T18:40:03.572Z,28.30
2019-04-30T18:42:32.606Z,31.03
2019-04-30T18:45:01.721Z,28.63
2019-04-30T18:47:30.517Z,34.30
2019-04-30T18:49:59.940Z,28.93
2019-04-30T18:52:28.775Z,30.03
2019-04-30T18:54:59.478Z,27.83
2019-04-30T18:57:28.464Z,30.97
2019-04-30T18:59:59.157Z,28.70
2019-04-30T19:02:27.874Z,31.33
2019-04-30T19:04:57.015Z,33.90
2019-04-30T19:07:31.250Z,28.73
2019-04-30T19:10:22.413Z,27.80
2019-04-30T19:13:19.594Z,32.50
2019-04-30T19:16:19.803Z,28.17
2019-04-30T19:19:00.990Z,27.60
2019-04-30T19:21:30.195Z,31.10
2019-04-30T19:23:59.335Z,31.17
2019-04-30T19:26:29.270Z,27.53
2019-04-30T19:28:58.334Z,25.77
2019-04-30T19:31:29.490Z,26.20
2019-04-30T19:33:58.886Z,29.23
2019-04-30T19:36:37.361Z,26.83
2019-04-30T19:39:02.470Z,26.60
2019-04-30T19:41:31.258Z,27.00
2019-04-30T19:44:00.128Z,23.60
2019-04-30T19:46:29.487Z,26.97
2019-04-30T19:49:00.086Z,28.50
2019-04-30T19:51:29.666Z,25.50
2019-04-30T19:53:59.873Z,23.67
2019-04-30T19:56:30.305Z,21.50
2019-04-30T19:59:04.803Z,26.83
2019-04-30T20:01:30.475Z,23.80
2019-04-30T20:03:59.548Z,24.47
2019-04-30T20:06:28.757Z,24.70
2019-04-30T20:08:59.041Z,24.40
2019-04-30T20:11:28.158Z,22.27
2019-04-30T20:13:56.934Z,25.67
2019-04-30T20:16:25.973Z,22.80
2019-04-30T20:18:54.755Z,24.53
2019-04-30T20:21:28.681Z,24.20
2019-04-30T20:23:55.511Z,26.27
2019-04-30T20:26:24.698Z,25.30
2019-04-30T20:28:53.759Z,26.63
2019-04-30T20:31:22.534Z,25.03
2019-04-30T20:33:53.669Z,21.70
2019-04-30T20:36:22.090Z,22.77
2019-04-30T20:39:15.942Z,22.27
2019-04-30T20:41:45.210Z,23.73
2019-04-30T20:44:14.112Z,24.00
2019-04-30T20:46:42.885Z,23.30
2019-04-30T20:49:11.671Z,23.73
2019-04-30T20:51:52.716Z,27.03
2019-04-30T20:54:11.279Z,26.60
2019-04-30T20:56:40.080Z,24.53
2019-04-30T20:59:10.791Z,23.90
2019-04-30T21:01:39.558Z,25.10
2019-04-30T21:04:08.435Z,24.53
2019-04-30T21:06:37.205Z,26.73
2019-04-30T21:09:06.973Z,21.27
2019-04-30T21:11:35.748Z,24.77
2019-04-30T21:14:04.782Z,25.67
2019-04-30T21:16:33.559Z,24.63
2019-04-30T21:19:02.442Z,22.23
2019-04-30T21:21:31.222Z,24.63
2019-04-30T21:23:59.996Z,21.77
2019-04-30T21:26:29.106Z,22.60
2019-04-30T21:29:10.684Z,27.33
2019-04-30T21:31:40.498Z,21.17
2019-04-30T21:34:29.338Z,21.77
2019-04-30T21:36:59.645Z,21.90
2019-04-30T21:39:29.095Z,22.97
2019-04-30T21:41:59.465Z,25.73
2019-04-30T21:44:29.098Z,23.57
2019-04-30T21:46:58.318Z,24.17
2019-04-30T21:49:27.438Z,23.00
2019-04-30T21:51:56.220Z,22.23
2019-04-30T21:54:25.015Z,24.63
2019-04-30T21:56:54.051Z,21.10
2019-04-30T21:59:24.422Z,23.90
2019-04-30T22:01:53.927Z,23.80
2019-04-30T22:04:22.710Z,22.77
2019-04-30T22:06:51.902Z,27.33
2019-04-30T22:09:21.235Z,32.73
2019-04-30T22:11:50.126Z,22.70
2019-04-30T22:14:19.396Z,26.60
2019-04-30T22:16:49.412Z,23.30
2019-04-30T22:19:18.385Z,25.17
2019-04-30T22:21:49.483Z,24.90
2019-04-30T22:24:18.036Z,26.63
2019-04-30T22:26:46.818Z,22.80
2019-04-30T22:29:15.597Z,24.97
2019-04-30T22:31:44.704Z,22.50
2019-04-30T22:34:13.918Z,24.50
2019-04-30T22:36:46.250Z,25.03
2019-04-30T22:39:52.552Z,28.83
2019-04-30T22:42:39.981Z,26.87
2019-04-30T22:45:41.031Z,27.53
2019-04-30T22:48:10.110Z,24.07
2019-04-30T22:50:38.893Z,25.70
2019-04-30T22:53:07.674Z,27.67
2019-04-30T22:55:36.574Z,28.10
2019-04-30T22:58:05.387Z,27.27
2019-04-30T23:00:45.310Z,33.90
2019-04-30T23:03:30.422Z,29.67
2019-04-30T23:05:59.772Z,30.23
2019-04-30T23:08:28.566Z,29.47
2019-04-30T23:10:57.860Z,34.83
2019-04-30T23:13:26.954Z,31.03
2019-04-30T23:15:55.955Z,30.57
2019-04-30T23:18:24.800Z,29.27
2019-04-30T23:20:53.582Z,30.30
2019-04-30T23:23:22.370Z,32.20
2019-04-30T23:25:51.398Z,32.90
2019-04-30T23:28:20.811Z,31.57
2019-04-30T23:30:49.610Z,32.23
2019-04-30T23:33:18.390Z,31.53
2019-04-30T23:35:47.206Z,37.67
2019-04-30T23:38:15.991Z,36.57
2019-04-30T23:40:50.501Z,33.27
2019-04-30T23:43:20.048Z,35.47
2019-04-30T23:45:49.102Z,38.27
2019-04-30T23:48:18.285Z,34.93
2019-04-30T23:50:47.374Z,34.17
2019-04-30T23:53:16.470Z,32.60
2019-04-30T23:55:45.333Z,34.53
2019-04-30T23:58:14.378Z,32.53
